createdAt,value
2023-03-06T00:01:00.765Z,101202.41
2023-03-06T00:03:28.522Z,101205.72
2023-03-06T00:05:59.937Z,101212.78
2023-03-06T00:08:29.067Z,101214.97
2023-03-06T00:10:56.972Z,101217.69
2023-03-06T00:13:25.058Z,101214.16
2023-03-06T00:15:52.485Z,101205.78
2023-03-06T00:18:19.674Z,101212.31
2023-03-06T00:20:47.059Z,101208.50
2023-03-06T00:23:14.182Z,101219.63
2023-03-06T00:25:47.449Z,101221.50
2023-03-06T00:28:15.940Z,101205.22
2023-03-06T00:30:43.690Z,101213.63
2023-03-06T00:33:11.445Z,101210.91
2023-03-06T00:35:40.176Z,101200.91
2023-03-06T00:38:07.868Z,101202.75
2023-03-06T00:40:35.037Z,101199.25
2023-03-06T00:43:02.348Z,101199.81
2023-03-06T00:45:30.044Z,101188.69
2023-03-06T00:47:57.420Z,101179.47
2023-03-06T00:50:24.873Z,101175.41
2023-03-06T00:52:52.584Z,101179.25
2023-03-06T00:55:19.693Z,101171.94
2023-03-06T00:57:47.010Z,101171.41
2023-03-06T01:00:14.891Z,101171.44
2023-03-06T01:02:42.289Z,101171.44
2023-03-06T01:05:10.376Z,101173.34
2023-03-06T01:07:37.962Z,101154.63
2023-03-06T01:10:08.281Z,101157.59
2023-03-06T01:12:35.750Z,101167.91
2023-03-06T01:15:03.022Z,101154.34
2023-03-06T01:17:30.225Z,101156.50
2023-03-06T01:19:58.081Z,101151.09
2023-03-06T01:22:25.275Z,101152.19
2023-03-06T01:24:53.234Z,101147.56
2023-03-06T01:27:21.705Z,101154.38
2023-03-06T01:29:48.850Z,101151.13
2023-03-06T01:32:16.209Z,101145.09
2023-03-06T01:34:43.289Z,101144.03
2023-03-06T01:37:10.550Z,101146.16
2023-03-06T01:39:37.617Z,101149.69
2023-03-06T01:42:05.189Z,101147.22
2023-03-06T01:44:32.404Z,101146.41
2023-03-06T01:47:02.477Z,101140.69
2023-03-06T01:49:35.126Z,101154.00
2023-03-06T01:52:07.287Z,101140.44
2023-03-06T01:55:00.927Z,101148.31
2023-03-06T01:57:32.895Z,101145.34
2023-03-06T02:00:10.693Z,101146.72
2023-03-06T02:02:44.162Z,101160.00
2023-03-06T02:05:12.328Z,101150.78
2023-03-06T02:07:41.568Z,101155.38
2023-03-06T02:10:09.585Z,101158.91
2023-03-06T02:12:37.774Z,101158.38
2023-03-06T02:15:05.357Z,101156.22
2023-03-06T02:17:35.376Z,101157.88
2023-03-06T02:20:24.585Z,101163.84
2023-03-06T02:23:05.529Z,101167.41
2023-03-06T02:25:34.777Z,101157.94
2023-03-06T02:28:02.476Z,101158.22
2023-03-06T02:30:30.761Z,101160.38
2023-03-06T02:32:58.485Z,101156.34
2023-03-06T02:35:32.804Z,101158.78
2023-03-06T02:38:05.164Z,101156.66
2023-03-06T02:40:33.417Z,101150.94
2023-03-06T02:43:00.722Z,101146.34
2023-03-06T02:45:40.558Z,101147.44
2023-03-06T02:48:08.128Z,101136.59
2023-03-06T02:50:35.346Z,101126.56
2023-03-06T02:53:02.569Z,101138.47
2023-03-06T02:55:31.632Z,101142.00
2023-03-06T02:58:00.219Z,101137.94
2023-03-06T03:00:29.010Z,101135.78
2023-03-06T03:02:56.665Z,101137.13
2023-03-06T03:05:24.692Z,101130.63
2023-03-06T03:07:58.465Z,101134.97
2023-03-06T03:10:27.913Z,101136.56
2023-03-06T03:12:55.341Z,101132.19
2023-03-06T03:15:24.322Z,101136.53
2023-03-06T03:17:52.692Z,101138.69
2023-03-06T03:20:22.672Z,101141.13
2023-03-06T03:22:53.584Z,101140.81
2023-03-06T03:25:22.326Z,101145.19
2023-03-06T03:27:49.550Z,101144.63
2023-03-06T03:30:17.404Z,101140.31
2023-03-06T03:32:45.348Z,101132.72
2023-03-06T03:35:13.640Z,101143.84
2023-03-06T03:37:41.982Z,101135.72
2023-03-06T03:40:10.404Z,101141.44
2023-03-06T03:42:37.983Z,101139.28
2023-03-06T03:45:06.845Z,101138.75
2023-03-06T03:47:34.231Z,101144.44
2023-03-06T03:50:02.583Z,101147.44
2023-03-06T03:52:29.846Z,101143.06
2023-03-06T03:54:57.303Z,101143.63
2023-03-06T03:57:26.911Z,101153.38
2023-03-06T03:59:55.710Z,101149.03
2023-03-06T04:02:26.863Z,101155.53
2023-03-06T04:05:20.183Z,101157.97
2023-03-06T04:07:48.663Z,101165.56
2023-03-06T04:10:16.812Z,101155.81
2023-03-06T04:12:44.551Z,101155.81
2023-03-06T04:15:13.066Z,101165.56
2023-03-06T04:17:40.657Z,101159.91
2023-03-06T04:20:14.663Z,101159.88
2023-03-06T04:22:42.369Z,101161.78
2023-03-06T04:25:11.994Z,101172.34
2023-03-06T04:27:39.232Z,101159.38
2023-03-06T04:30:08.022Z,101158.00
2023-03-06T04:32:35.975Z,101162.38
2023-03-06T04:35:03.382Z,101162.91
2023-03-06T04:37:35.835Z,101162.34
2023-03-06T04:40:04.535Z,101165.06
2023-03-06T04:42:31.744Z,101173.47
2023-03-06T04:44:58.929Z,101171.84
2023-03-06T04:47:26.101Z,101171.03
2023-03-06T04:49:55.187Z,101177.25
2023-03-06T04:52:22.204Z,101172.94
2023-03-06T04:54:49.479Z,101167.78
2023-03-06T04:57:16.647Z,101168.31
2023-03-06T04:59:43.944Z,101166.97
2023-03-06T05:02:11.064Z,101160.47
2023-03-06T05:04:38.389Z,101171.31
2023-03-06T05:07:05.602Z,101164.81
2023-03-06T05:09:35.142Z,101173.47
2023-03-06T05:12:02.962Z,101155.56
2023-03-06T05:14:31.037Z,101142.59
2023-03-06T05:16:58.354Z,101152.88
2023-03-06T05:19:25.635Z,101154.50
2023-03-06T05:21:52.862Z,101165.88
2023-03-06T05:24:20.031Z,101159.41
2023-03-06T05:26:47.142Z,101164.00
2023-03-06T05:29:14.336Z,101166.16
2023-03-06T05:31:41.592Z,101169.13
2023-03-06T05:34:13.276Z,101163.38
2023-03-06T05:36:40.527Z,101161.97
2023-03-06T05:39:07.891Z,101163.50
2023-03-06T05:41:36.356Z,101165.56
2023-03-06T05:44:03.412Z,101166.78
2023-03-06T05:46:30.688Z,101168.41
2023-03-06T05:48:58.081Z,101174.47
2023-03-06T05:51:26.841Z,101182.03
2023-03-06T05:53:53.973Z,101178.81
2023-03-06T05:56:22.035Z,101181.75
2023-03-06T05:58:49.366Z,101189.56
2023-03-06T06:01:20.900Z,101170.84
2023-03-06T06:03:48.552Z,101177.75
2023-03-06T06:06:15.849Z,101178.34
2023-03-06T06:08:43.383Z,101186.47
2023-03-06T06:11:12.789Z,101192.22
2023-03-06T06:13:40.648Z,101189.78
2023-03-06T06:16:15.976Z,101193.09
2023-03-06T06:18:44.133Z,101191.84
2023-03-06T06:21:13.253Z,101186.06
2023-03-06T06:23:41.114Z,101184.13
2023-03-06T06:26:09.866Z,101200.84
2023-03-06T06:28:37.173Z,101200.09
2023-03-06T06:31:09.900Z,101201.19
2023-03-06T06:33:37.183Z,101213.72
2023-03-06T06:36:04.572Z,101212.47
2023-03-06T06:38:31.756Z,101218.34
2023-03-06T06:41:32.947Z,101213.59
2023-03-06T06:43:46.062Z,101211.28
2023-03-06T06:46:41.896Z,101224.28
2023-03-06T06:49:02.705Z,101228.63
2023-03-06T06:51:34.311Z,101224.38
2023-03-06T06:54:01.638Z,101230.03
2023-03-06T06:56:28.960Z,101231.38
2023-03-06T06:59:03.904Z,101241.41
2023-03-06T07:01:41.430Z,101251.53
2023-03-06T07:04:08.565Z,101242.88
2023-03-06T07:06:35.689Z,101242.19
2023-03-06T07:09:03.017Z,101245.94
2023-03-06T07:11:31.192Z,101246.50
2023-03-06T07:13:58.499Z,101244.31
2023-03-06T07:16:25.608Z,101243.44
2023-03-06T07:18:52.768Z,101259.91
2023-03-06T07:21:19.884Z,101262.03
2023-03-06T07:23:47.213Z,101254.25
2023-03-06T07:26:14.309Z,101249.78
2023-03-06T07:28:52.073Z,101261.50
2023-03-06T07:31:26.759Z,101255.81
2023-03-06T07:33:55.148Z,101252.94
2023-03-06T07:36:23.746Z,101258.13
2023-03-06T07:38:50.915Z,101242.13
2023-03-06T07:41:21.788Z,101242.97
2023-03-06T07:43:50.506Z,101243.91
2023-03-06T07:46:18.294Z,101252.44
2023-03-06T07:48:45.590Z,101257.28
2023-03-06T07:51:18.367Z,101248.63
2023-03-06T07:53:46.456Z,101256.44
2023-03-06T07:56:14.401Z,101244.34
2023-03-06T07:58:44.073Z,101250.47
2023-03-06T08:01:14.682Z,101251.13
2023-03-06T08:03:42.318Z,101240.63
2023-03-06T08:06:14.557Z,101243.03
2023-03-06T08:08:44.529Z,101250.13
2023-03-06T08:11:14.397Z,101245.09
2023-03-06T08:13:42.226Z,101249.84
2023-03-06T08:16:10.523Z,101236.63
2023-03-06T08:18:40.008Z,101243.50
2023-03-06T08:21:16.133Z,101236.03
2023-03-06T08:23:43.711Z,101232.16
2023-03-06T08:26:22.696Z,101240.97
2023-03-06T08:28:52.263Z,101243.00
2023-03-06T08:31:51.731Z,101241.84
2023-03-06T08:34:22.450Z,101248.22
2023-03-06T08:36:49.678Z,101247.25
2023-03-06T08:39:16.885Z,101262.19
2023-03-06T08:41:44.453Z,101253.91
2023-03-06T08:44:12.655Z,101254.38
2023-03-06T08:46:40.241Z,101247.50
2023-03-06T08:49:07.511Z,101248.13
2023-03-06T08:51:34.845Z,101248.22
2023-03-06T08:54:02.102Z,101258.13
2023-03-06T08:56:31.959Z,101261.88
2023-03-06T08:59:02.152Z,101258.06
2023-03-06T09:01:31.845Z,101255.88
2023-03-06T09:04:02.031Z,101256.81
2023-03-06T09:06:33.105Z,101255.97
2023-03-06T09:09:00.632Z,101266.09
2023-03-06T09:11:28.578Z,101270.97
2023-03-06T09:13:56.373Z,101268.09
2023-03-06T09:16:24.077Z,101261.84
2023-03-06T09:18:53.147Z,101261.88
2023-03-06T09:21:22.489Z,101279.53
2023-03-06T09:23:51.351Z,101267.22
2023-03-06T09:26:19.426Z,101266.28
2023-03-06T09:28:46.805Z,101255.63
2023-03-06T09:31:19.879Z,101251.94
2023-03-06T09:33:48.806Z,101258.06
2023-03-06T09:36:23.343Z,101246.88
2023-03-06T09:38:51.011Z,101253.47
2023-03-06T09:41:36.818Z,101253.81
2023-03-06T09:44:15.195Z,101246.25
2023-03-06T09:47:08.590Z,101245.81
2023-03-06T09:50:05.202Z,101253.22
2023-03-06T09:52:41.531Z,101257.91
2023-03-06T09:55:15.263Z,101249.03
2023-03-06T09:57:59.307Z,101249.22
2023-03-06T10:00:35.660Z,101247.88
2023-03-06T10:03:11.625Z,101260.47
2023-03-06T10:05:44.692Z,101251.47
2023-03-06T10:08:25.110Z,101256.91
2023-03-06T10:11:04.088Z,101241.28
2023-03-06T10:13:39.097Z,101244.53
2023-03-06T10:16:29.798Z,101249.31
2023-03-06T10:19:04.725Z,101251.63
2023-03-06T10:21:49.837Z,101250.81
2023-03-06T10:24:47.791Z,101243.19
2023-03-06T10:27:17.455Z,101237.69
2023-03-06T10:30:03.676Z,101228.22
2023-03-06T10:33:00.632Z,101229.13
2023-03-06T10:35:33.303Z,101226.84
2023-03-06T10:38:23.026Z,101232.66
2023-03-06T10:41:09.091Z,101222.44
2023-03-06T10:43:38.096Z,101208.50
2023-03-06T10:46:07.500Z,101204.69
2023-03-06T10:48:36.782Z,101199.72
2023-03-06T10:51:18.744Z,101195.66
2023-03-06T10:54:00.688Z,101197.78
2023-03-06T10:56:33.540Z,101191.09
2023-03-06T10:59:20.094Z,101187.47
2023-03-06T11:01:49.603Z,101179.16
2023-03-06T11:04:24.977Z,101165.72
2023-03-06T11:07:12.640Z,101167.22
2023-03-06T11:09:40.196Z,101157.81
2023-03-06T11:12:24.108Z,101149.16
2023-03-06T11:15:17.785Z,101149.78
2023-03-06T11:18:22.277Z,101148.09
2023-03-06T11:20:54.588Z,101147.03
2023-03-06T11:23:39.745Z,101148.38
2023-03-06T11:26:15.797Z,101136.50
2023-03-06T11:28:46.477Z,101134.16
2023-03-06T11:31:22.758Z,101130.25
2023-03-06T11:34:05.623Z,101122.22
2023-03-06T11:36:47.724Z,101114.78
2023-03-06T11:39:36.131Z,101106.78
2023-03-06T11:42:20.435Z,101104.63
2023-03-06T11:45:05.780Z,101099.94
2023-03-06T11:48:01.907Z,101089.28
2023-03-06T11:50:34.991Z,101085.19
2023-03-06T11:53:05.576Z,101084.34
2023-03-06T11:55:38.565Z,101074.13
2023-03-06T11:58:32.550Z,101069.09
2023-03-06T12:01:12.232Z,101074.25
2023-03-06T12:03:58.363Z,101069.34
2023-03-06T12:06:28.501Z,101058.78
2023-03-06T12:09:01.819Z,101055.72
2023-03-06T12:12:01.091Z,101046.13
2023-03-06T12:14:40.312Z,101051.56
2023-03-06T12:17:13.810Z,101051.00
2023-03-06T12:20:01.150Z,101040.09
2023-03-06T12:22:57.700Z,101045.34
2023-03-06T12:25:45.203Z,101035.53
2023-03-06T12:28:31.636Z,101036.38
2023-03-06T12:31:37.808Z,101031.22
2023-03-06T12:34:38.609Z,101027.81
2023-03-06T12:37:31.088Z,101027.38
2023-03-06T12:40:37.408Z,101013.69
2023-03-06T12:43:28.639Z,101011.44
2023-03-06T12:46:04.001Z,101011.13
2023-03-06T12:48:36.629Z,101000.91
2023-03-06T12:51:08.396Z,100987.84
2023-03-06T12:53:36.878Z,100993.91
2023-03-06T12:56:04.797Z,101002.81
2023-03-06T12:58:35.065Z,100992.13
2023-03-06T13:01:28.786Z,100996.00
2023-03-06T13:04:01.952Z,100983.94
2023-03-06T13:06:51.498Z,100980.31
2023-03-06T13:09:32.657Z,100981.56
2023-03-06T13:12:13.443Z,100970.47
2023-03-06T13:14:48.643Z,100973.94
2023-03-06T13:17:20.956Z,100969.41
2023-03-06T13:19:48.866Z,100961.94
2023-03-06T13:22:28.200Z,100958.13
2023-03-06T13:25:16.994Z,100962.06
2023-03-06T13:27:55.662Z,100956.16
2023-03-06T13:30:27.540Z,100956.00
2023-03-06T13:32:56.330Z,100948.59
2023-03-06T13:35:32.383Z,100933.94
2023-03-06T13:38:00.495Z,100926.97
2023-03-06T13:40:36.344Z,100921.28
2023-03-06T13:43:09.328Z,100921.66
2023-03-06T13:45:43.383Z,100914.47
2023-03-06T13:48:47.680Z,100914.72
2023-03-06T13:51:24.190Z,100900.72
2023-03-06T13:54:06.571Z,100895.59
2023-03-06T13:56:54.911Z,100876.72
2023-03-06T13:59:38.692Z,100877.19
2023-03-06T14:02:39.994Z,100869.78
2023-03-06T14:05:14.197Z,100871.19
2023-03-06T14:07:48.848Z,100867.66
2023-03-06T14:10:25.705Z,100879.09
2023-03-06T14:13:03.422Z,100875.50
2023-03-06T14:15:42.286Z,100863.13
2023-03-06T14:18:20.750Z,100859.13
2023-03-06T14:20:58.923Z,100861.84
2023-03-06T14:23:43.659Z,100853.31
2023-03-06T14:26:25.662Z,100856.84
2023-03-06T14:28:52.785Z,100845.59
2023-03-06T14:31:24.852Z,100842.72
2023-03-06T14:34:07.104Z,100847.41
2023-03-06T14:36:43.169Z,100844.34
2023-03-06T14:39:31.105Z,100823.69
2023-03-06T14:42:20.052Z,100821.97
2023-03-06T14:44:49.087Z,100827.91
2023-03-06T14:47:31.684Z,100828.38
2023-03-06T14:50:23.742Z,100829.69
2023-03-06T14:52:55.725Z,100830.22
2023-03-06T14:55:25.658Z,100835.53
2023-03-06T14:58:01.032Z,100835.75
2023-03-06T15:00:36.567Z,100839.28
2023-03-06T15:03:09.409Z,100832.91
2023-03-06T15:05:36.763Z,100833.56
2023-03-06T15:08:08.576Z,100841.47
2023-03-06T15:10:36.968Z,100848.41
2023-03-06T15:13:21.690Z,100849.03
2023-03-06T15:16:28.480Z,100860.31
2023-03-06T15:19:04.636Z,100871.34
2023-03-06T15:21:36.937Z,100865.09
2023-03-06T15:24:34.621Z,100862.34
2023-03-06T15:27:04.858Z,100843.44
2023-03-06T15:29:32.965Z,100841.13
2023-03-06T15:32:33.638Z,100852.81
2023-03-06T15:35:37.882Z,100866.16
2023-03-06T15:38:24.657Z,100882.00
2023-03-06T15:40:57.067Z,100886.59
2023-03-06T15:43:24.451Z,100889.69
2023-03-06T15:46:00.484Z,100841.41
2023-03-06T15:48:28.702Z,100842.38
2023-03-06T15:50:56.091Z,100857.66
2023-03-06T15:53:23.398Z,100838.41
2023-03-06T15:55:52.003Z,100836.13
2023-03-06T15:58:23.581Z,100840.09
2023-03-06T16:00:51.385Z,100836.13
2023-03-06T16:03:18.700Z,100844.72
2023-03-06T16:05:45.891Z,100839.72
2023-03-06T16:08:15.105Z,100835.81
2023-03-06T16:10:44.693Z,100838.53
2023-03-06T16:13:16.340Z,100834.91
2023-03-06T16:15:52.543Z,100841.06
2023-03-06T16:18:19.785Z,100839.97
2023-03-06T16:20:46.996Z,100842.41
2023-03-06T16:23:15.541Z,100829.88
2023-03-06T16:25:46.383Z,100820.31
2023-03-06T16:28:16.617Z,100826.28
2023-03-06T16:30:45.000Z,100823.25
2023-03-06T16:33:13.517Z,100836.56
2023-03-06T16:35:44.580Z,100831.03
2023-03-06T16:38:11.834Z,100830.34
2023-03-06T16:40:41.572Z,100832.97
2023-03-06T16:43:10.725Z,100832.28
2023-03-06T16:45:39.819Z,100831.69
2023-03-06T16:48:07.471Z,100819.91
2023-03-06T16:50:39.430Z,100829.31
2023-03-06T16:53:07.655Z,100828.09
2023-03-06T16:55:34.763Z,100817.63
2023-03-06T16:58:02.454Z,100817.00
2023-03-06T17:00:32.136Z,100813.19
2023-03-06T17:03:00.897Z,100811.56
2023-03-06T17:05:28.837Z,100808.84
2023-03-06T17:07:56.797Z,100795.13
2023-03-06T17:10:26.518Z,100801.38
2023-03-06T17:12:55.543Z,100791.59
2023-03-06T17:15:23.406Z,100789.34
2023-03-06T17:17:51.802Z,100799.38
2023-03-06T17:20:20.115Z,100792.19
2023-03-06T17:22:47.216Z,100788.34
2023-03-06T17:25:14.529Z,100797.53
2023-03-06T17:27:41.629Z,100801.28
2023-03-06T17:30:09.983Z,100804.00
2023-03-06T17:32:38.287Z,100811.56
2023-03-06T17:35:05.845Z,100811.38
2023-03-06T17:37:32.998Z,100807.94
2023-03-06T17:40:00.197Z,100800.88
2023-03-06T17:42:27.275Z,100793.81
2023-03-06T17:44:54.495Z,100788.88
2023-03-06T17:47:21.493Z,100809.25
2023-03-06T17:49:48.626Z,100809.97
2023-03-06T17:52:15.755Z,100812.06
2023-03-06T17:54:43.042Z,100819.66
2023-03-06T17:57:10.002Z,100810.88
2023-03-06T17:59:37.248Z,100823.97
2023-03-06T18:02:06.395Z,100811.88
2023-03-06T18:04:33.714Z,100808.34
2023-03-06T18:07:00.708Z,100793.81
2023-03-06T18:09:27.792Z,100787.25
2023-03-06T18:11:55.064Z,100794.00
2023-03-06T18:14:22.061Z,100792.88
2023-03-06T18:16:49.392Z,100795.94
2023-03-06T18:19:17.816Z,100794.63
2023-03-06T18:21:47.405Z,100791.28
2023-03-06T18:24:14.473Z,100790.16
2023-03-06T18:26:45.041Z,100794.53
2023-03-06T18:29:12.536Z,100796.53
2023-03-06T18:31:41.981Z,100794.50
2023-03-06T18:34:12.166Z,100799.34
2023-03-06T18:36:40.542Z,100796.00
2023-03-06T18:39:09.763Z,100803.38
2023-03-06T18:41:37.877Z,100799.22
2023-03-06T18:44:05.469Z,100805.69
2023-03-06T18:46:35.102Z,100794.28
2023-03-06T18:49:03.017Z,100801.56
2023-03-06T18:51:30.689Z,100796.91
2023-03-06T18:53:59.517Z,100808.31
2023-03-06T18:56:27.037Z,100802.56
2023-03-06T18:58:54.750Z,100805.28
2023-03-06T19:01:23.237Z,100809.75
2023-03-06T19:03:50.532Z,100802.47
2023-03-06T19:06:18.649Z,100809.31
2023-03-06T19:08:45.782Z,100806.91
2023-03-06T19:11:15.729Z,100806.13
2023-03-06T19:13:43.536Z,100811.06
2023-03-06T19:16:21.412Z,100801.38
2023-03-06T19:18:48.731Z,100804.69
2023-03-06T19:21:21.280Z,100800.88
2023-03-06T19:23:48.855Z,100797.31
2023-03-06T19:26:16.576Z,100794.13
2023-03-06T19:28:43.916Z,100791.59
2023-03-06T19:31:21.207Z,100794.59
2023-03-06T19:33:50.028Z,100791.69
2023-03-06T19:36:18.716Z,100798.75
2023-03-06T19:38:50.488Z,100790.59
2023-03-06T19:41:17.942Z,100792.00
2023-03-06T19:43:45.018Z,100796.31
2023-03-06T19:46:13.949Z,100794.41
2023-03-06T19:48:42.548Z,100795.72
2023-03-06T19:51:10.938Z,100791.88
2023-03-06T19:53:41.756Z,100797.03
2023-03-06T19:56:16.525Z,100784.22
2023-03-06T19:58:43.756Z,100791.59
2023-03-06T20:01:13.678Z,100786.75
2023-03-06T20:03:42.418Z,100783.81
2023-03-06T20:06:20.300Z,100775.66
2023-03-06T20:08:48.880Z,100771.59
2023-03-06T20:11:21.221Z,100771.81
2023-03-06T20:13:49.616Z,100776.16
2023-03-06T20:16:18.527Z,100769.88
2023-03-06T20:18:46.661Z,100767.66
2023-03-06T20:21:15.144Z,100764.44
2023-03-06T20:23:42.863Z,100772.31
2023-03-06T20:26:12.460Z,100763.34
2023-03-06T20:28:41.291Z,100763.22
2023-03-06T20:31:20.194Z,100760.50
2023-03-06T20:33:49.662Z,100760.69
2023-03-06T20:36:22.815Z,100762.31
2023-03-06T20:38:50.813Z,100750.81
2023-03-06T20:41:20.589Z,100751.59
2023-03-06T20:43:48.536Z,100759.47
2023-03-06T20:46:16.237Z,100762.09
2023-03-06T20:48:43.809Z,100752.50
2023-03-06T20:51:18.168Z,100752.19
2023-03-06T20:53:47.598Z,100750.25
2023-03-06T20:56:16.828Z,100749.84
2023-03-06T20:58:44.560Z,100745.38
2023-03-06T21:01:25.555Z,100746.41
2023-03-06T21:03:55.069Z,100741.75
2023-03-06T21:06:22.080Z,100740.09
2023-03-06T21:08:49.503Z,100738.31
2023-03-06T21:11:19.307Z,100733.66
2023-03-06T21:13:46.510Z,100734.09
2023-03-06T21:16:18.135Z,100737.34
2023-03-06T21:18:45.704Z,100739.25
2023-03-06T21:21:14.792Z,100733.00
2023-03-06T21:23:41.846Z,100728.81
2023-03-06T21:26:13.672Z,100737.53
2023-03-06T21:28:41.290Z,100741.03
2023-03-06T21:31:10.716Z,100736.72
2023-03-06T21:33:38.600Z,100733.19
2023-03-06T21:36:06.692Z,100746.00
2023-03-06T21:38:34.222Z,100740.53
2023-03-06T21:41:25.911Z,100734.00
2023-03-06T21:43:57.239Z,100731.44
2023-03-06T21:46:24.880Z,100727.13
2023-03-06T21:48:52.358Z,100730.94
2023-03-06T21:51:21.424Z,100724.50
2023-03-06T21:53:49.412Z,100718.88
2023-03-06T21:56:18.586Z,100722.19
2023-03-06T21:58:46.264Z,100717.56
2023-03-06T22:01:19.113Z,100719.47
2023-03-06T22:03:46.705Z,100714.03
2023-03-06T22:06:15.301Z,100717.56
2023-03-06T22:08:43.631Z,100715.94
2023-03-06T22:11:13.505Z,100710.78
2023-03-06T22:13:41.410Z,100714.97
2023-03-06T22:16:09.053Z,100713.31
2023-03-06T22:18:36.281Z,100710.13
2023-03-06T22:21:12.359Z,100704.66
2023-03-06T22:23:40.644Z,100707.06
2023-03-06T22:26:11.266Z,100712.72
2023-03-06T22:28:39.497Z,100710.50
2023-03-06T22:31:09.203Z,100714.34
2023-03-06T22:33:36.543Z,100714.13
2023-03-06T22:36:06.467Z,100712.22
2023-03-06T22:38:35.266Z,100711.53
2023-03-06T22:41:02.921Z,100706.88
2023-03-06T22:43:30.020Z,100726.47
2023-03-06T22:46:09.220Z,100714.44
2023-03-06T22:48:36.769Z,100716.97
2023-03-06T22:51:12.221Z,100714.25
2023-03-06T22:53:40.244Z,100713.47
2023-03-06T22:56:10.024Z,100709.94
2023-03-06T22:58:37.732Z,100709.41
2023-03-06T23:01:08.748Z,100716.47
2023-03-06T23:03:38.050Z,100710.72
2023-03-06T23:06:16.249Z,100713.47
2023-03-06T23:08:45.036Z,100710.59
2023-03-06T23:11:14.367Z,100710.31
2023-03-06T23:14:00.850Z,100714.97
2023-03-06T23:16:46.908Z,100710.72
2023-03-06T23:19:33.551Z,100716.78
2023-03-06T23:22:19.641Z,100709.22
2023-03-06T23:25:06.223Z,100702.47
2023-03-06T23:27:36.191Z,100709.84
2023-03-06T23:30:05.430Z,100705.81
2023-03-06T23:32:33.875Z,100700.34
2023-03-06T23:35:01.370Z,100697.63
2023-03-06T23:37:28.549Z,100707.72
2023-03-06T23:39:55.775Z,100703.41
2023-03-06T23:42:23.399Z,100706.72
2023-03-06T23:44:50.775Z,100703.69
2023-03-06T23:47:20.093Z,100702.59
2023-03-06T23:49:47.289Z,100704.50
2023-03-06T23:52:14.277Z,100709.47
2023-03-06T23:54:41.567Z,100697.53
2023-03-06T23:57:08.937Z,100698.66
2023-03-06T23:59:36.320Z,100703.81
